createdAt,value
2019-01-25T00:01:09.215Z,96701.00
2019-01-25T00:03:37.551Z,96706.00
2019-01-25T00:06:06.464Z,96702.00
2019-01-25T00:08:34.263Z,96690.00
2019-01-25T00:11:02.053Z,96707.00
2019-01-25T00:13:29.799Z,96700.00
2019-01-25T00:15:57.775Z,96697.00
2019-01-25T00:18:26.083Z,96704.00
2019-01-25T00:20:53.873Z,96708.00
2019-01-25T00:23:21.540Z,96704.00
2019-01-25T00:25:49.321Z,96702.00
2019-01-25T00:28:17.074Z,96712.00
2019-01-25T00:30:44.847Z,96711.00
2019-01-25T00:33:12.508Z,96712.00
2019-01-25T00:35:40.307Z,96709.00
2019-01-25T00:38:08.331Z,96708.00
2019-01-25T00:40:36.107Z,96721.00
2019-01-25T00:43:04.152Z,96721.00
2019-01-25T00:45:31.981Z,96711.00
2019-01-25T00:48:00.050Z,96699.00
2019-01-25T00:50:27.851Z,96707.00
2019-01-25T00:52:55.610Z,96714.00
2019-01-25T00:55:23.393Z,96705.00
2019-01-25T00:57:51.161Z,96724.00
2019-01-25T01:00:21.914Z,96715.00
2019-01-25T01:02:50.049Z,96714.00
2019-01-25T01:05:18.968Z,96716.00
2019-01-25T01:07:47.879Z,96730.00
2019-01-25T01:10:15.785Z,96722.00
2019-01-25T01:12:43.734Z,96733.00
2019-01-25T01:15:11.882Z,96728.00
2019-01-25T01:17:39.648Z,96720.00
2019-01-25T01:20:11.175Z,96726.00
2019-01-25T01:22:39.584Z,96728.00
2019-01-25T01:25:09.916Z,96734.00
2019-01-25T01:27:37.677Z,96730.00
2019-01-25T01:30:08.600Z,96732.00
2019-01-25T01:32:36.636Z,96750.00
2019-01-25T01:35:06.199Z,96747.00
2019-01-25T01:37:34.248Z,96741.00
2019-01-25T01:40:03.603Z,96745.00
2019-01-25T01:42:31.674Z,96749.00
2019-01-25T01:44:59.483Z,96745.00
2019-01-25T01:47:27.305Z,96757.00
2019-01-25T01:49:55.144Z,96752.00
2019-01-25T01:52:22.799Z,96759.00
2019-01-25T01:54:50.766Z,96748.00
2019-01-25T01:57:18.529Z,96751.00
2019-01-25T01:59:46.368Z,96750.00
2019-01-25T02:02:14.348Z,96722.00
2019-01-25T02:04:42.143Z,96751.00
2019-01-25T02:07:09.891Z,96755.00
2019-01-25T02:09:37.549Z,96749.00
2019-01-25T02:12:05.329Z,96760.00
2019-01-25T02:14:33.359Z,96768.00
2019-01-25T02:17:01.383Z,96762.00
2019-01-25T02:19:29.119Z,96767.00
2019-01-25T02:21:57.177Z,96765.00
2019-01-25T02:24:24.927Z,96766.00
2019-01-25T02:26:52.780Z,96774.00
2019-01-25T02:29:20.528Z,96763.00
2019-01-25T02:31:48.487Z,96764.00
2019-01-25T02:34:16.295Z,96765.00
2019-01-25T02:36:44.066Z,96767.00
2019-01-25T02:39:11.815Z,96766.00
2019-01-25T02:41:39.763Z,96755.00
2019-01-25T02:44:07.771Z,96764.00
2019-01-25T02:46:35.473Z,96767.00
2019-01-25T02:49:03.746Z,96764.00
2019-01-25T02:51:31.743Z,96772.00
2019-01-25T02:53:59.761Z,96759.00
2019-01-25T02:56:27.440Z,96763.00
2019-01-25T02:58:55.024Z,96758.00
2019-01-25T03:01:22.693Z,96769.00
2019-01-25T03:03:50.347Z,96762.00
2019-01-25T03:06:18.133Z,96761.00
2019-01-25T03:08:46.748Z,96760.00
2019-01-25T03:11:14.461Z,96761.00
2019-01-25T03:13:42.044Z,96756.00
2019-01-25T03:16:10.106Z,96762.00
2019-01-25T03:18:38.019Z,96761.00
2019-01-25T03:21:05.801Z,96749.00
2019-01-25T03:23:33.557Z,96760.00
2019-01-25T03:26:01.489Z,96754.00
2019-01-25T03:28:29.577Z,96772.00
2019-01-25T03:30:57.342Z,96760.00
2019-01-25T03:33:25.036Z,96763.00
2019-01-25T03:35:52.778Z,96761.00
2019-01-25T03:38:20.526Z,96779.00
2019-01-25T03:40:54.987Z,96755.00
2019-01-25T03:43:17.855Z,96766.00
2019-01-25T03:45:45.642Z,96762.00
2019-01-25T03:48:13.540Z,96774.00
2019-01-25T03:50:41.309Z,96767.00
2019-01-25T03:53:08.894Z,96765.00
2019-01-25T03:55:36.632Z,96764.00
2019-01-25T03:58:04.793Z,96761.00
2019-01-25T04:00:32.570Z,96751.00
2019-01-25T04:03:00.531Z,96761.00
2019-01-25T04:05:28.380Z,96760.00
2019-01-25T04:07:56.405Z,96768.00
2019-01-25T04:10:26.417Z,96759.00
2019-01-25T04:12:55.230Z,96769.00
2019-01-25T04:15:29.249Z,96755.00
2019-01-25T04:17:57.053Z,96763.00
2019-01-25T04:20:24.906Z,96762.00
2019-01-25T04:22:53.024Z,96769.00
2019-01-25T04:25:21.511Z,96776.00
2019-01-25T04:27:49.457Z,96768.00
2019-01-25T04:30:29.042Z,96768.00
2019-01-25T04:32:56.937Z,96770.00
2019-01-25T04:35:24.679Z,96775.00
2019-01-25T04:37:52.765Z,96770.00
2019-01-25T04:40:21.223Z,96768.00
2019-01-25T04:42:49.529Z,96786.00
2019-01-25T04:45:18.446Z,96773.00
2019-01-25T04:47:46.323Z,96772.00
2019-01-25T04:50:19.553Z,96769.00
2019-01-25T04:52:47.338Z,96774.00
2019-01-25T04:55:24.333Z,96777.00
2019-01-25T04:57:52.265Z,96782.00
2019-01-25T05:00:21.016Z,96779.00
2019-01-25T05:02:58.469Z,96778.00
2019-01-25T05:05:26.710Z,96781.00
2019-01-25T05:08:05.376Z,96774.00
2019-01-25T05:10:33.115Z,96460.00
2019-01-25T05:13:01.167Z,96793.00
2019-01-25T05:15:28.934Z,96785.00
2019-01-25T05:17:56.737Z,96796.00
2019-01-25T05:20:24.764Z,96789.00
2019-01-25T05:22:57.482Z,96795.00
2019-01-25T05:25:26.285Z,96809.00
2019-01-25T05:27:54.418Z,96800.00
2019-01-25T05:30:22.350Z,96805.00
2019-01-25T05:32:50.129Z,96805.00
2019-01-25T05:35:17.876Z,96811.00
2019-01-25T05:37:45.663Z,96813.00
2019-01-25T05:40:22.260Z,96812.00
2019-01-25T05:42:50.044Z,96802.00
2019-01-25T05:45:17.780Z,96801.00
2019-01-25T05:47:45.555Z,96811.00
2019-01-25T05:50:13.762Z,96807.00
2019-01-25T05:52:41.581Z,96802.00
2019-01-25T05:55:14.945Z,96797.00
2019-01-25T05:57:42.905Z,96806.00
2019-01-25T06:00:11.293Z,96813.00
2019-01-25T06:02:39.387Z,96810.00
2019-01-25T06:05:07.429Z,96809.00
2019-01-25T06:07:35.193Z,96813.00
2019-01-25T06:10:04.289Z,96818.00
2019-01-25T06:12:32.039Z,96809.00
2019-01-25T06:14:59.844Z,96813.00
2019-01-25T06:17:27.752Z,96805.00
2019-01-25T06:19:55.529Z,96812.00
2019-01-25T06:22:23.284Z,96818.00
2019-01-25T06:24:51.066Z,96824.00
2019-01-25T06:27:18.848Z,96825.00
2019-01-25T06:29:46.918Z,96823.00
2019-01-25T06:32:14.952Z,96819.00
2019-01-25T06:34:42.908Z,96825.00
2019-01-25T06:37:10.686Z,96828.00
2019-01-25T06:39:38.269Z,96831.00
2019-01-25T06:42:06.028Z,96827.00
2019-01-25T06:44:33.712Z,96835.00
2019-01-25T06:47:01.416Z,96838.00
2019-01-25T06:49:29.556Z,96841.00
2019-01-25T06:51:57.298Z,96839.00
2019-01-25T06:54:25.296Z,96841.00
2019-01-25T06:56:52.904Z,96843.00
2019-01-25T06:59:23.929Z,96843.00
2019-01-25T07:02:17.547Z,96847.00
2019-01-25T07:04:45.219Z,96851.00
2019-01-25T07:07:22.129Z,96849.00
2019-01-25T07:09:49.927Z,96863.00
2019-01-25T07:12:18.076Z,96863.00
2019-01-25T07:14:45.556Z,96861.00
2019-01-25T07:17:13.209Z,96871.00
2019-01-25T07:19:40.890Z,96870.00
2019-01-25T07:22:08.648Z,96869.00
2019-01-25T07:24:36.437Z,96871.00
2019-01-25T07:27:04.240Z,96887.00
2019-01-25T07:29:31.929Z,96868.00
2019-01-25T07:31:59.820Z,96873.00
2019-01-25T07:34:27.753Z,96879.00
2019-01-25T07:36:55.645Z,96883.00
2019-01-25T07:39:26.974Z,96881.00
2019-01-25T07:41:59.639Z,96880.00
2019-01-25T07:44:25.605Z,96886.00
2019-01-25T07:46:53.491Z,96542.00
2019-01-25T07:49:21.264Z,96900.00
2019-01-25T07:51:49.318Z,96903.00
2019-01-25T07:54:17.087Z,96890.00
2019-01-25T07:56:44.875Z,96894.00
2019-01-25T07:59:12.700Z,96898.00
2019-01-25T08:01:40.815Z,96902.00
2019-01-25T08:04:08.695Z,96913.00
2019-01-25T08:06:36.705Z,96915.00
2019-01-25T08:09:08.141Z,96910.00
2019-01-25T08:11:35.833Z,96906.00
2019-01-25T08:14:04.756Z,96903.00
2019-01-25T08:16:32.581Z,96907.00
2019-01-25T08:19:00.216Z,96905.00
2019-01-25T08:21:28.000Z,96905.00
2019-01-25T08:23:56.020Z,96901.00
2019-01-25T08:26:24.056Z,96922.00
2019-01-25T08:28:52.105Z,96904.00
2019-01-25T08:31:20.406Z,96904.00
2019-01-25T08:33:48.374Z,96904.00
2019-01-25T08:36:16.320Z,96884.00
2019-01-25T08:38:44.109Z,96892.00
2019-01-25T08:41:11.818Z,96893.00
2019-01-25T08:43:39.467Z,96903.00
2019-01-25T08:46:07.277Z,96900.00
2019-01-25T08:48:35.049Z,96900.00
2019-01-25T08:51:03.090Z,96906.00
2019-01-25T08:53:31.125Z,96914.00
2019-01-25T08:55:59.227Z,96906.00
2019-01-25T08:58:27.010Z,96914.00
2019-01-25T09:00:54.764Z,96909.00
2019-01-25T09:03:22.444Z,96917.00
2019-01-25T09:05:50.517Z,96921.00
2019-01-25T09:08:18.540Z,96930.00
2019-01-25T09:10:46.398Z,96924.00
2019-01-25T09:13:14.271Z,96932.00
2019-01-25T09:15:42.232Z,96926.00
2019-01-25T09:18:10.120Z,96938.00
2019-01-25T09:20:38.170Z,96927.00
2019-01-25T09:23:05.926Z,96939.00
2019-01-25T09:25:34.264Z,96934.00
2019-01-25T09:28:02.044Z,96943.00
2019-01-25T09:30:29.807Z,96940.00
2019-01-25T09:32:57.679Z,96938.00
2019-01-25T09:35:25.431Z,96940.00
2019-01-25T09:37:53.617Z,96941.00
2019-01-25T09:40:22.744Z,96945.00
2019-01-25T09:42:51.190Z,96935.00
2019-01-25T09:45:19.424Z,96943.00
2019-01-25T09:47:47.349Z,96939.00
2019-01-25T09:50:17.345Z,96937.00
2019-01-25T09:52:45.029Z,96927.00
2019-01-25T09:55:18.727Z,96925.00
2019-01-25T09:57:47.054Z,96932.00
2019-01-25T10:00:23.697Z,96918.00
2019-01-25T10:02:51.478Z,96924.00
2019-01-25T10:05:19.273Z,96913.00
2019-01-25T10:07:47.080Z,96913.00
2019-01-25T10:10:14.867Z,96919.00
2019-01-25T10:12:43.445Z,96913.00
2019-01-25T10:15:15.665Z,96906.00
2019-01-25T10:17:43.343Z,96909.00
2019-01-25T10:20:11.220Z,96909.00
2019-01-25T10:22:39.180Z,96921.00
2019-01-25T10:25:08.258Z,96911.00
2019-01-25T10:27:36.044Z,96927.00
2019-01-25T10:30:07.385Z,96918.00
2019-01-25T10:32:35.539Z,96918.00
2019-01-25T10:35:05.271Z,96913.00
2019-01-25T10:37:33.061Z,96923.00
2019-01-25T10:40:00.519Z,96923.00
2019-01-25T10:42:28.577Z,96924.00
2019-01-25T10:44:56.275Z,96916.00
2019-01-25T10:47:25.752Z,96913.00
2019-01-25T10:49:53.309Z,96909.00
2019-01-25T10:52:21.145Z,96891.00
2019-01-25T10:54:49.071Z,96904.00
2019-01-25T10:57:16.856Z,96903.00
2019-01-25T10:59:44.632Z,96902.00
2019-01-25T11:02:12.685Z,96888.00
2019-01-25T11:04:40.342Z,96884.00
2019-01-25T11:07:07.960Z,96886.00
2019-01-25T11:09:38.114Z,96890.00
2019-01-25T11:12:05.550Z,96890.00
2019-01-25T11:14:33.306Z,96884.00
2019-01-25T11:17:01.100Z,96887.00
2019-01-25T11:19:28.852Z,96885.00
2019-01-25T11:21:56.442Z,96883.00
2019-01-25T11:24:24.128Z,96898.00
2019-01-25T11:26:52.029Z,96884.00
2019-01-25T11:29:19.913Z,96887.00
2019-01-25T11:31:47.839Z,96895.00
2019-01-25T11:34:15.413Z,96885.00
2019-01-25T11:36:43.719Z,96884.00
2019-01-25T11:39:11.888Z,96899.00
2019-01-25T11:41:39.838Z,96892.00
2019-01-25T11:44:07.537Z,96888.00
2019-01-25T11:46:35.198Z,96886.00
2019-01-25T11:49:03.185Z,96883.00
2019-01-25T11:51:31.936Z,96888.00
2019-01-25T11:53:59.632Z,96896.00
2019-01-25T11:56:27.389Z,96898.00
2019-01-25T11:58:55.495Z,96893.00
2019-01-25T12:01:23.540Z,96896.00
2019-01-25T12:03:51.791Z,96898.00
2019-01-25T12:06:19.647Z,96893.00
2019-01-25T12:08:47.712Z,96906.00
2019-01-25T12:11:15.390Z,96904.00
2019-01-25T12:13:42.996Z,96888.00
2019-01-25T12:16:11.764Z,96898.00
2019-01-25T12:18:39.491Z,96895.00
2019-01-25T12:21:07.240Z,96891.00
2019-01-25T12:23:35.036Z,96884.00
2019-01-25T12:26:02.822Z,96894.00
2019-01-25T12:28:30.911Z,96885.00
2019-01-25T12:30:58.843Z,96880.00
2019-01-25T12:33:26.448Z,96884.00
2019-01-25T12:35:54.198Z,96886.00
2019-01-25T12:38:21.968Z,96879.00
2019-01-25T12:40:49.741Z,96892.00
2019-01-25T12:43:23.871Z,96892.00
2019-01-25T12:45:50.169Z,96876.00
2019-01-25T12:48:16.859Z,96879.00
2019-01-25T12:51:03.279Z,96885.00
2019-01-25T12:53:32.131Z,96885.00
2019-01-25T12:55:59.875Z,96893.00
2019-01-25T12:58:27.732Z,96899.00
2019-01-25T13:00:55.490Z,96885.00
2019-01-25T13:03:23.355Z,96877.00
2019-01-25T13:05:51.640Z,96883.00
2019-01-25T13:08:19.372Z,96874.00
2019-01-25T13:10:47.126Z,96885.00
2019-01-25T13:13:14.933Z,96890.00
2019-01-25T13:15:42.692Z,96867.00
2019-01-25T13:18:10.513Z,96872.00
2019-01-25T13:20:39.613Z,96869.00
2019-01-25T13:23:07.433Z,96864.00
2019-01-25T13:25:35.235Z,96877.00
2019-01-25T13:28:03.084Z,96879.00
2019-01-25T13:30:30.972Z,96865.00
2019-01-25T13:32:59.726Z,96876.00
2019-01-25T13:35:27.822Z,96878.00
2019-01-25T13:37:55.583Z,96871.00
2019-01-25T13:40:23.788Z,96870.00
2019-01-25T13:42:52.018Z,96887.00
2019-01-25T13:45:21.787Z,96874.00
2019-01-25T13:47:49.765Z,96871.00
2019-01-25T13:50:20.668Z,96871.00
2019-01-25T13:52:48.338Z,96881.00
2019-01-25T13:55:17.080Z,96884.00
2019-01-25T13:57:44.954Z,96883.00
2019-01-25T14:00:22.970Z,96880.00
2019-01-25T14:02:51.998Z,96892.00
2019-01-25T14:05:19.929Z,96892.00
2019-01-25T14:07:47.785Z,96888.00
2019-01-25T14:10:20.103Z,96885.00
2019-01-25T14:12:48.135Z,96887.00
2019-01-25T14:15:15.967Z,96909.00
2019-01-25T14:17:43.769Z,96908.00
2019-01-25T14:20:22.948Z,96903.00
2019-01-25T14:22:44.972Z,96906.00
2019-01-25T14:25:12.956Z,96898.00
2019-01-25T14:27:40.736Z,96888.00
2019-01-25T14:30:17.693Z,96882.00
2019-01-25T14:32:45.453Z,96903.00
2019-01-25T14:35:13.160Z,96886.00
2019-01-25T14:37:41.225Z,96914.00
2019-01-25T14:40:09.269Z,96878.00
2019-01-25T14:42:36.939Z,96859.00
2019-01-25T14:45:05.513Z,96887.00
2019-01-25T14:47:33.512Z,96886.00
2019-01-25T14:50:01.580Z,96892.00
2019-01-25T14:52:29.709Z,96900.00
2019-01-25T14:54:57.429Z,96901.00
2019-01-25T14:57:25.260Z,96897.00
2019-01-25T14:59:52.924Z,96890.00
2019-01-25T15:02:20.953Z,96884.00
2019-01-25T15:04:48.776Z,96881.00
2019-01-25T15:07:16.480Z,96876.00
2019-01-25T15:09:44.088Z,96878.00
2019-01-25T15:12:11.862Z,96875.00
2019-01-25T15:14:39.572Z,96864.00
2019-01-25T15:17:07.360Z,96878.00
2019-01-25T15:19:35.148Z,96869.00
2019-01-25T15:22:02.896Z,96863.00
2019-01-25T15:24:30.620Z,96858.00
2019-01-25T15:26:58.448Z,96875.00
2019-01-25T15:29:27.157Z,96868.00
2019-01-25T15:31:55.804Z,96868.00
2019-01-25T15:34:24.595Z,96872.00
2019-01-25T15:36:52.167Z,96884.00
2019-01-25T15:39:19.969Z,96886.00
2019-01-25T15:41:47.716Z,96897.00
2019-01-25T15:44:15.178Z,96897.00
2019-01-25T15:46:42.914Z,96897.00
2019-01-25T15:49:10.672Z,96896.00
2019-01-25T15:51:38.544Z,96903.00
2019-01-25T15:54:06.204Z,96896.00
2019-01-25T15:56:34.565Z,96907.00
2019-01-25T15:59:03.611Z,96899.00
2019-01-25T16:01:31.849Z,96906.00
2019-01-25T16:04:00.011Z,96893.00
2019-01-25T16:06:27.615Z,96895.00
2019-01-25T16:08:55.639Z,96891.00
2019-01-25T16:11:23.430Z,96888.00
2019-01-25T16:13:51.328Z,96881.00
2019-01-25T16:16:19.079Z,96889.00
2019-01-25T16:18:47.007Z,96891.00
2019-01-25T16:21:15.087Z,96894.00
2019-01-25T16:23:42.857Z,96889.00
2019-01-25T16:26:10.661Z,96892.00
2019-01-25T16:28:38.333Z,96890.00
2019-01-25T16:31:06.171Z,96892.00
2019-01-25T16:33:33.949Z,96902.00
2019-01-25T16:36:01.736Z,96893.00
2019-01-25T16:38:29.507Z,96896.00
2019-01-25T16:40:57.288Z,96891.00
2019-01-25T16:43:24.973Z,96910.00
2019-01-25T16:45:53.320Z,96913.00
2019-01-25T16:48:21.048Z,96901.00
2019-01-25T16:50:48.952Z,96913.00
2019-01-25T16:53:16.696Z,96917.00
2019-01-25T16:55:44.817Z,96912.00
2019-01-25T16:58:15.333Z,96915.00
2019-01-25T17:00:47.614Z,96909.00
2019-01-25T17:03:15.877Z,96908.00
2019-01-25T17:05:43.664Z,96911.00
2019-01-25T17:08:11.748Z,96909.00
2019-01-25T17:10:41.107Z,96910.00
2019-01-25T17:13:09.056Z,96907.00
2019-01-25T17:15:36.903Z,96768.00
2019-01-25T17:18:05.482Z,96907.00
2019-01-25T17:23:32.545Z,96902.00
2019-01-25T17:26:03.791Z,96910.00
2019-01-25T17:28:34.968Z,96897.00
2019-01-25T17:31:06.233Z,96882.00
2019-01-25T17:33:37.415Z,96885.00
2019-01-25T17:36:08.984Z,96877.00
2019-01-25T17:38:40.226Z,96878.00
2019-01-25T17:41:11.812Z,96888.00
2019-01-25T17:43:43.061Z,96899.00
2019-01-25T17:46:14.435Z,96896.00
2019-01-25T17:48:45.689Z,96890.00
2019-01-25T17:51:17.083Z,96890.00
2019-01-25T17:53:48.736Z,96891.00
2019-01-25T17:56:21.112Z,96891.00
2019-01-25T17:58:52.287Z,96871.00
2019-01-25T18:01:24.008Z,96873.00
2019-01-25T18:03:55.275Z,96868.00
2019-01-25T18:06:26.612Z,96873.00
2019-01-25T18:08:57.866Z,96891.00
2019-01-25T18:11:29.388Z,96897.00
2019-01-25T18:14:00.687Z,96885.00
2019-01-25T18:16:31.972Z,96888.00
2019-01-25T18:19:03.436Z,96888.00
2019-01-25T18:21:35.084Z,96881.00
2019-01-25T18:24:06.509Z,96905.00
2019-01-25T18:26:38.200Z,96888.00
2019-01-25T18:29:58.243Z,96883.00
2019-01-25T18:32:29.644Z,96883.00
2019-01-25T18:35:01.177Z,96875.00
2019-01-25T18:37:33.798Z,96886.00
2019-01-25T18:40:08.854Z,96891.00
2019-01-25T18:42:40.107Z,96891.00
2019-01-25T18:45:11.369Z,96890.00
2019-01-25T18:47:43.068Z,96889.00
2019-01-25T18:50:15.211Z,96890.00
2019-01-25T18:52:49.743Z,96883.00
2019-01-25T18:55:22.502Z,96885.00
2019-01-25T18:57:54.160Z,96890.00
2019-01-25T19:00:26.090Z,96881.00
2019-01-25T19:02:57.612Z,96871.00
2019-01-25T19:05:29.258Z,96863.00
2019-01-25T19:08:00.933Z,96871.00
2019-01-25T19:10:32.466Z,96888.00
2019-01-25T19:13:03.748Z,96868.00
2019-01-25T19:15:35.039Z,96857.00
2019-01-25T19:18:06.359Z,96850.00
2019-01-25T19:20:37.935Z,96851.00
2019-01-25T19:23:09.311Z,96860.00
2019-01-25T19:25:40.573Z,96850.00
2019-01-25T19:28:12.282Z,96847.00
2019-01-25T19:30:45.769Z,96884.00
2019-01-25T19:33:17.532Z,96848.00
2019-01-25T19:35:48.776Z,96848.00
2019-01-25T19:38:22.532Z,96835.00
2019-01-25T19:40:53.894Z,96825.00
2019-01-25T19:43:25.408Z,96828.00
2019-01-25T19:45:57.393Z,96835.00
2019-01-25T19:48:29.413Z,96830.00
2019-01-25T19:51:01.482Z,96836.00
2019-01-25T19:53:33.143Z,96836.00
2019-01-25T19:56:05.185Z,96833.00
2019-01-25T19:58:36.651Z,96830.00
2019-01-25T20:01:07.901Z,96822.00
2019-01-25T20:03:39.452Z,96834.00
2019-01-25T20:06:10.646Z,96831.00
2019-01-25T20:08:43.286Z,96840.00
2019-01-25T20:11:14.657Z,96834.00
2019-01-25T20:13:46.376Z,96810.00
2019-01-25T20:16:18.024Z,96806.00
2019-01-25T20:18:50.260Z,96830.00
2019-01-25T20:21:21.846Z,96818.00
2019-01-25T20:23:53.003Z,96808.00
2019-01-25T20:26:24.389Z,96822.00
2019-01-25T20:28:55.617Z,96805.00
2019-01-25T20:31:27.441Z,96802.00
2019-01-25T20:33:59.101Z,96799.00
2019-01-25T20:36:30.460Z,96791.00
2019-01-25T20:39:02.402Z,96801.00
2019-01-25T20:41:35.570Z,96792.00
2019-01-25T20:44:07.149Z,96793.00
2019-01-25T20:46:39.318Z,96802.00
2019-01-25T20:49:10.959Z,96788.00
2019-01-25T20:51:45.154Z,96797.00
2019-01-25T20:54:16.722Z,96783.00
2019-01-25T20:56:47.911Z,96798.00
2019-01-25T20:59:19.067Z,96791.00
2019-01-25T21:01:50.204Z,96777.00
2019-01-25T21:04:21.422Z,96764.00
2019-01-25T21:06:52.964Z,96772.00
2019-01-25T21:09:24.249Z,96770.00
2019-01-25T21:11:55.360Z,96763.00
2019-01-25T21:14:27.837Z,96776.00
2019-01-25T21:16:59.271Z,96768.00
2019-01-25T21:19:30.762Z,96762.00
2019-01-25T21:22:02.092Z,96746.00
2019-01-25T21:24:33.303Z,96748.00
2019-01-25T21:27:04.987Z,96741.00
2019-01-25T21:29:36.513Z,96725.00
2019-01-25T21:32:07.762Z,96727.00
2019-01-25T21:34:38.984Z,96720.00
2019-01-25T21:37:10.275Z,96721.00
2019-01-25T21:39:42.126Z,96722.00
2019-01-25T21:42:13.308Z,96718.00
2019-01-25T21:44:45.012Z,96725.00
2019-01-25T21:47:16.256Z,96723.00
2019-01-25T21:49:47.468Z,96712.00
2019-01-25T21:52:18.737Z,96712.00
2019-01-25T21:54:50.311Z,96719.00
2019-01-25T21:57:21.560Z,96697.00
2019-01-25T21:59:53.111Z,96692.00
2019-01-25T22:02:24.365Z,96685.00
2019-01-25T22:04:56.327Z,96689.00
2019-01-25T22:07:27.515Z,96682.00
2019-01-25T22:09:59.024Z,96673.00
2019-01-25T22:12:30.573Z,96671.00
2019-01-25T22:15:02.277Z,96675.00
2019-01-25T22:17:33.534Z,96680.00
2019-01-25T22:20:07.993Z,96674.00
2019-01-25T22:22:39.260Z,96663.00
2019-01-25T22:25:11.200Z,96663.00
2019-01-25T22:27:42.859Z,96649.00
2019-01-25T22:30:18.714Z,96649.00
2019-01-25T22:32:49.903Z,96643.00
2019-01-25T22:35:21.574Z,96643.00
2019-01-25T22:37:53.320Z,96636.00
2019-01-25T22:40:30.392Z,96628.00
2019-01-25T22:43:01.679Z,96647.00
2019-01-25T22:45:33.839Z,96632.00
2019-01-25T22:48:06.349Z,96633.00
2019-01-25T22:50:38.929Z,96624.00
2019-01-25T22:53:10.372Z,96603.00
2019-01-25T22:55:41.671Z,96611.00
2019-01-25T22:58:12.904Z,96611.00
2019-01-25T23:01:22.670Z,96601.00
2019-01-25T23:04:24.255Z,96596.00
2019-01-25T23:07:07.982Z,96575.00
2019-01-25T23:09:53.068Z,96591.00
2019-01-25T23:12:24.320Z,96586.00
2019-01-25T23:14:55.876Z,96578.00
2019-01-25T23:17:27.159Z,96576.00
2019-01-25T23:19:58.483Z,96572.00
2019-01-25T23:22:31.567Z,96578.00
2019-01-25T23:25:03.972Z,96574.00
2019-01-25T23:27:35.155Z,96587.00
2019-01-25T23:30:12.173Z,96559.00
2019-01-25T23:32:43.792Z,96552.00
2019-01-25T23:35:15.448Z,96559.00
2019-01-25T23:37:46.624Z,96548.00
2019-01-25T23:40:17.941Z,96541.00
2019-01-25T23:42:49.118Z,96541.00
2019-01-25T23:45:20.332Z,96374.00
2019-01-25T23:47:51.609Z,96520.00
2019-01-25T23:50:24.316Z,96518.00
2019-01-25T23:52:55.510Z,96521.00
2019-01-25T23:55:27.733Z,96525.00
2019-01-25T23:57:59.419Z,96532.00
